createdAt,value
2022-10-21T00:00:50.058Z,26.40
2022-10-21T00:03:19.387Z,26.38
2022-10-21T00:05:47.381Z,25.38
2022-10-21T00:08:15.312Z,26.63
2022-10-21T00:10:43.327Z,23.42
2022-10-21T00:13:11.210Z,21.60
2022-10-21T00:15:39.081Z,23.58
2022-10-21T00:18:06.949Z,24.23
2022-10-21T00:20:38.921Z,24.02
2022-10-21T00:23:07.783Z,23.67
2022-10-21T00:25:35.693Z,22.52
2022-10-21T00:28:03.594Z,22.70
2022-10-21T00:30:31.508Z,25.35
2022-10-21T00:33:02.269Z,24.17
2022-10-21T00:35:35.737Z,25.05
2022-10-21T00:38:03.627Z,23.98
2022-10-21T00:40:31.512Z,22.10
2022-10-21T00:42:59.386Z,21.27
2022-10-21T00:45:27.581Z,22.25
2022-10-21T00:47:57.309Z,23.00
2022-10-21T00:50:30.876Z,21.80
2022-10-21T00:53:00.140Z,23.75
2022-10-21T00:55:29.052Z,22.13
2022-10-21T00:57:57.025Z,22.60
2022-10-21T01:00:24.880Z,22.35
2022-10-21T01:02:52.789Z,25.13
2022-10-21T01:05:20.853Z,25.40
2022-10-21T01:07:48.852Z,21.60
2022-10-21T01:10:18.232Z,20.92
2022-10-21T01:12:58.340Z,22.00
2022-10-21T01:15:26.882Z,22.80
2022-10-21T01:17:56.625Z,21.10
2022-10-21T01:20:45.374Z,23.33
2022-10-21T01:23:28.721Z,19.98
2022-10-21T01:26:32.038Z,22.35
2022-10-21T01:29:12.867Z,21.92
2022-10-21T01:31:43.576Z,22.05
2022-10-21T01:34:12.059Z,20.95
2022-10-21T01:36:42.057Z,21.77
2022-10-21T01:39:18.054Z,19.83
2022-10-21T01:41:48.584Z,20.70
2022-10-21T01:44:20.156Z,20.05
2022-10-21T01:46:50.825Z,19.55
2022-10-21T01:49:21.451Z,20.10
2022-10-21T01:51:49.352Z,20.90
2022-10-21T01:54:19.846Z,18.63
2022-10-21T01:56:47.734Z,18.67
2022-10-21T01:59:15.589Z,20.02
2022-10-21T02:01:43.435Z,22.00
2022-10-21T02:04:12.702Z,19.60
2022-10-21T02:06:40.911Z,18.70
2022-10-21T02:09:08.850Z,18.38
2022-10-21T02:11:36.927Z,19.63
2022-10-21T02:14:07.139Z,18.20
2022-10-21T02:16:38.027Z,19.10
2022-10-21T02:19:06.905Z,18.70
2022-10-21T02:21:36.555Z,19.70
2022-10-21T02:24:07.462Z,16.30
2022-10-21T02:26:35.355Z,18.27
2022-10-21T02:29:03.263Z,18.58
2022-10-21T02:31:44.598Z,16.17
2022-10-21T02:34:19.288Z,18.23
2022-10-21T02:36:52.362Z,17.27
2022-10-21T02:39:21.046Z,16.45
2022-10-21T02:41:49.075Z,18.40
2022-10-21T02:44:16.943Z,17.83
2022-10-21T02:46:45.056Z,16.30
2022-10-21T02:49:12.947Z,16.88
2022-10-21T02:51:41.061Z,16.27
2022-10-21T02:54:10.304Z,18.90
2022-10-21T02:56:38.167Z,17.25
2022-10-21T02:59:06.033Z,18.88
2022-10-21T03:01:33.898Z,17.25
2022-10-21T03:04:01.752Z,16.58
2022-10-21T03:06:29.617Z,16.23
2022-10-21T03:08:57.631Z,16.92
2022-10-21T03:11:26.919Z,17.38
2022-10-21T03:13:54.778Z,17.70
2022-10-21T03:16:22.661Z,16.23
2022-10-21T03:18:50.539Z,18.58
2022-10-21T03:21:18.390Z,14.38
2022-10-21T03:23:46.256Z,17.52
2022-10-21T03:26:14.191Z,17.13
2022-10-21T03:28:43.395Z,14.13
2022-10-21T03:31:11.261Z,16.50
2022-10-21T03:33:39.119Z,14.02
2022-10-21T03:36:08.147Z,13.15
2022-10-21T03:38:36.004Z,17.20
2022-10-21T03:41:03.917Z,15.55
2022-10-21T03:43:31.805Z,14.27
2022-10-21T03:46:01.014Z,16.02
2022-10-21T03:48:29.280Z,16.17
2022-10-21T03:50:57.290Z,16.35
2022-10-21T03:53:42.213Z,14.13
2022-10-21T03:56:11.053Z,13.02
2022-10-21T03:58:38.976Z,14.20
2022-10-21T04:01:08.292Z,14.93
2022-10-21T04:03:36.219Z,16.30
2022-10-21T04:06:04.235Z,15.48
2022-10-21T04:08:32.119Z,14.13
2022-10-21T04:11:00.031Z,14.90
2022-10-21T04:13:27.887Z,13.68
2022-10-21T04:15:58.988Z,13.07
2022-10-21T04:18:28.243Z,16.15
2022-10-21T04:20:56.193Z,13.80
2022-10-21T04:23:24.268Z,12.90
2022-10-21T04:25:52.166Z,15.02
2022-10-21T04:28:20.030Z,14.50
2022-10-21T04:30:47.916Z,11.75
2022-10-21T04:33:15.805Z,12.80
2022-10-21T04:35:44.986Z,11.98
2022-10-21T04:38:12.856Z,14.57
2022-10-21T04:40:40.724Z,12.23
2022-10-21T04:43:08.567Z,12.80
2022-10-21T04:45:39.088Z,12.63
2022-10-21T04:48:07.552Z,11.40
2022-10-21T04:50:35.856Z,12.32
2022-10-21T04:53:05.135Z,12.00
2022-10-21T04:55:33.053Z,12.98
2022-10-21T04:58:00.948Z,14.38
2022-10-21T05:00:28.865Z,13.13
2022-10-21T05:02:56.753Z,13.35
2022-10-21T05:05:24.641Z,13.73
2022-10-21T05:07:52.509Z,12.70
2022-10-21T05:10:22.429Z,11.40
2022-10-21T05:12:50.291Z,12.25
2022-10-21T05:15:18.309Z,13.82
2022-10-21T05:17:46.216Z,10.93
2022-10-21T05:20:14.356Z,15.10
2022-10-21T05:22:42.425Z,14.18
2022-10-21T05:25:10.560Z,14.77
2022-10-21T05:27:39.839Z,10.93
2022-10-21T05:30:08.998Z,11.60
2022-10-21T05:32:37.097Z,15.52
2022-10-21T05:35:05.670Z,20.98
2022-10-21T05:37:33.586Z,32.85
2022-10-21T05:40:01.485Z,42.67
2022-10-21T05:42:29.429Z,46.78
2022-10-21T05:44:58.630Z,46.67
2022-10-21T05:47:26.494Z,42.88
2022-10-21T05:49:54.405Z,47.95
2022-10-21T05:52:22.277Z,44.83
2022-10-21T05:54:50.123Z,38.10
2022-10-21T05:57:18.006Z,37.67
2022-10-21T05:59:45.896Z,42.30
2022-10-21T06:02:15.111Z,39.53
2022-10-21T06:04:42.969Z,34.47
2022-10-21T06:07:10.849Z,32.00
2022-10-21T06:09:38.882Z,35.53
2022-10-21T06:12:07.702Z,32.58
2022-10-21T06:14:36.573Z,32.53
2022-10-21T06:17:04.535Z,26.45
2022-10-21T06:19:33.794Z,32.00
2022-10-21T06:22:01.717Z,30.33
2022-10-21T06:24:29.972Z,24.50
2022-10-21T06:26:57.961Z,25.00
2022-10-21T06:29:27.509Z,31.73
2022-10-21T06:31:55.383Z,22.95
2022-10-21T06:34:23.322Z,23.98
2022-10-21T06:36:52.526Z,23.35
2022-10-21T06:39:20.423Z,19.05
2022-10-21T06:41:48.274Z,19.35
2022-10-21T06:44:33.373Z,19.20
2022-10-21T06:47:01.291Z,16.63
2022-10-21T06:49:29.297Z,19.58
2022-10-21T06:51:58.532Z,19.38
2022-10-21T06:54:26.437Z,17.42
2022-10-21T06:56:54.337Z,17.17
2022-10-21T06:59:22.185Z,15.80
2022-10-21T07:01:59.634Z,17.55
2022-10-21T07:04:28.529Z,18.67
2022-10-21T07:06:58.003Z,20.85
2022-10-21T07:09:25.990Z,27.55
2022-10-21T07:11:53.943Z,17.17
2022-10-21T07:14:21.868Z,19.98
2022-10-21T07:16:51.475Z,17.73
2022-10-21T07:19:19.364Z,15.65
2022-10-21T07:21:47.319Z,13.90
2022-10-21T07:24:21.408Z,14.43
2022-10-21T07:26:50.388Z,15.73
2022-10-21T07:29:18.541Z,16.25
2022-10-21T07:31:46.439Z,13.35
2022-10-21T07:34:14.514Z,14.88
2022-10-21T07:36:43.751Z,11.18
2022-10-21T07:39:13.605Z,19.83
2022-10-21T07:41:44.263Z,20.17
2022-10-21T07:44:12.319Z,25.30
2022-10-21T07:46:40.331Z,23.90
2022-10-21T07:49:08.280Z,30.15
2022-10-21T07:51:36.161Z,37.22
2022-10-21T07:54:04.246Z,34.05
2022-10-21T07:56:33.411Z,43.55
2022-10-21T07:59:02.954Z,46.28
2022-10-21T08:01:31.090Z,39.17
2022-10-21T08:03:59.427Z,49.70
2022-10-21T08:06:28.770Z,39.13
2022-10-21T08:08:57.382Z,48.63
2022-10-21T08:11:25.848Z,46.60
2022-10-21T08:13:53.707Z,39.95
2022-10-21T08:16:23.141Z,44.40
2022-10-21T08:18:51.034Z,38.00
2022-10-21T08:21:19.030Z,43.03
2022-10-21T08:23:46.899Z,38.85
2022-10-21T08:26:15.599Z,38.97
2022-10-21T08:28:43.642Z,36.60
2022-10-21T08:31:12.435Z,42.83
2022-10-21T08:33:41.740Z,37.28
2022-10-21T08:36:10.199Z,33.33
2022-10-21T08:38:38.125Z,31.92
2022-10-21T08:41:13.196Z,36.20
2022-10-21T08:43:41.052Z,32.00
2022-10-21T08:46:09.876Z,25.92
2022-10-21T08:48:40.683Z,26.60
2022-10-21T08:51:13.451Z,32.25
2022-10-21T08:53:42.267Z,25.25
2022-10-21T08:56:17.173Z,32.22
2022-10-21T08:58:48.899Z,26.55
2022-10-21T09:01:19.248Z,35.70
2022-10-21T09:03:48.398Z,23.80
2022-10-21T09:06:22.859Z,25.50
2022-10-21T09:08:57.557Z,24.60
2022-10-21T09:11:29.841Z,27.67
2022-10-21T09:14:08.390Z,23.98
2022-10-21T09:16:41.080Z,22.67
2022-10-21T09:19:16.108Z,20.88
2022-10-21T09:21:58.385Z,21.17
2022-10-21T09:24:35.937Z,22.52
2022-10-21T09:27:04.237Z,19.25
2022-10-21T09:29:33.149Z,23.45
2022-10-21T09:32:06.760Z,26.48
2022-10-21T09:34:40.378Z,20.63
2022-10-21T09:37:12.994Z,20.38
2022-10-21T09:39:42.184Z,19.38
2022-10-21T09:42:22.817Z,19.90
2022-10-21T09:44:59.470Z,20.52
2022-10-21T09:47:27.386Z,19.17
2022-10-21T09:50:13.318Z,19.38
2022-10-21T09:52:42.709Z,20.15
2022-10-21T09:55:13.314Z,18.70
2022-10-21T09:57:45.724Z,16.63
2022-10-21T10:00:14.305Z,17.98
2022-10-21T10:02:44.957Z,16.05
2022-10-21T10:05:41.457Z,18.67
2022-10-21T10:08:30.272Z,17.38
2022-10-21T10:11:17.008Z,17.85
2022-10-21T10:13:46.689Z,13.77
2022-10-21T10:16:22.321Z,19.95
2022-10-21T10:18:50.632Z,17.20
2022-10-21T10:21:18.831Z,14.18
2022-10-21T10:23:49.583Z,13.60
2022-10-21T10:26:23.157Z,15.50
2022-10-21T10:28:53.093Z,13.02
2022-10-21T10:31:25.795Z,15.13
2022-10-21T10:33:58.700Z,13.20
2022-10-21T10:36:29.549Z,14.90
2022-10-21T10:38:59.496Z,13.45
2022-10-21T10:41:32.171Z,18.02
2022-10-21T10:44:00.096Z,13.88
2022-10-21T10:46:29.780Z,16.25
2022-10-21T10:48:58.930Z,16.23
2022-10-21T10:51:28.206Z,13.02
2022-10-21T10:54:02.536Z,15.70
2022-10-21T10:56:30.813Z,15.70
2022-10-21T10:59:03.833Z,15.45
2022-10-21T11:01:32.501Z,12.43
2022-10-21T11:04:02.612Z,15.50
2022-10-21T11:06:36.206Z,14.10
2022-10-21T11:09:05.439Z,10.45
2022-10-21T11:11:37.399Z,12.20
2022-10-21T11:14:05.291Z,11.85
2022-10-21T11:16:45.085Z,12.10
2022-10-21T11:19:28.940Z,14.77
2022-10-21T11:21:57.676Z,8.98
2022-10-21T11:24:53.040Z,10.93
2022-10-21T11:27:35.355Z,9.07
2022-10-21T11:30:06.459Z,9.95
2022-10-21T11:32:39.836Z,10.02
2022-10-21T11:35:16.926Z,9.93
2022-10-21T11:37:58.744Z,12.60
2022-10-21T11:40:32.396Z,10.88
2022-10-21T11:43:03.510Z,11.55
2022-10-21T11:45:38.188Z,10.38
2022-10-21T11:48:12.672Z,11.02
2022-10-21T11:50:43.359Z,7.97
2022-10-21T11:53:19.772Z,11.00
2022-10-21T11:55:54.999Z,9.38
2022-10-21T11:58:33.955Z,11.50
2022-10-21T12:01:11.847Z,9.63
2022-10-21T12:03:48.762Z,10.25
2022-10-21T12:06:22.117Z,8.23
2022-10-21T12:08:53.715Z,8.40
2022-10-21T12:11:25.055Z,8.75
2022-10-21T12:13:54.854Z,10.20
2022-10-21T12:16:25.522Z,8.65
2022-10-21T12:18:54.628Z,7.97
2022-10-21T12:21:24.889Z,7.97
2022-10-21T12:23:54.963Z,8.77
2022-10-21T12:26:25.630Z,8.52
2022-10-21T12:28:56.759Z,9.85
2022-10-21T12:31:30.111Z,7.47
2022-10-21T12:33:58.005Z,6.95
2022-10-21T12:36:39.251Z,7.95
2022-10-21T12:39:07.796Z,8.30
2022-10-21T12:41:37.360Z,7.80
2022-10-21T12:44:08.328Z,8.45
2022-10-21T12:46:40.102Z,9.32
2022-10-21T12:49:19.910Z,9.30
2022-10-21T12:51:49.409Z,7.88
2022-10-21T12:54:17.912Z,7.00
2022-10-21T12:56:48.220Z,9.00
2022-10-21T12:59:28.219Z,8.27
2022-10-21T13:02:24.957Z,7.63
2022-10-21T13:04:54.275Z,6.30
2022-10-21T13:07:32.611Z,7.75
2022-10-21T13:10:30.603Z,7.75
2022-10-21T13:13:29.636Z,7.18
2022-10-21T13:15:57.555Z,8.43
2022-10-21T13:18:54.022Z,8.70
2022-10-21T13:21:36.148Z,6.65
2022-10-21T13:24:15.339Z,6.97
2022-10-21T13:26:49.122Z,7.30
2022-10-21T13:29:28.428Z,6.78
2022-10-21T13:32:28.254Z,6.55
2022-10-21T13:34:58.975Z,6.32
2022-10-21T13:37:29.013Z,5.38
2022-10-21T13:39:57.264Z,9.95
2022-10-21T13:42:25.225Z,7.43
2022-10-21T13:44:59.418Z,7.45
2022-10-21T13:47:30.291Z,6.80
2022-10-21T13:49:58.910Z,7.30
2022-10-21T13:52:29.726Z,8.40
2022-10-21T13:55:02.536Z,6.93
2022-10-21T13:57:30.878Z,6.85
2022-10-21T14:00:05.428Z,6.40
2022-10-21T14:02:33.354Z,6.97
2022-10-21T14:05:01.499Z,7.95
2022-10-21T14:07:29.563Z,7.07
2022-10-21T14:09:58.219Z,7.50
2022-10-21T14:12:27.289Z,6.32
2022-10-21T14:14:56.788Z,5.75
2022-10-21T14:17:26.805Z,7.57
2022-10-21T14:19:55.625Z,6.30
2022-10-21T14:22:24.874Z,5.57
2022-10-21T14:24:54.173Z,7.13
2022-10-21T14:27:23.747Z,6.30
2022-10-21T14:29:51.615Z,6.25
2022-10-21T14:32:20.944Z,5.90
2022-10-21T14:34:59.738Z,5.65
2022-10-21T14:37:27.678Z,6.68
2022-10-21T14:39:55.685Z,5.65
2022-10-21T14:42:24.391Z,6.38
2022-10-21T14:44:53.370Z,6.20
2022-10-21T14:47:22.922Z,6.57
2022-10-21T14:49:51.924Z,7.20
2022-10-21T14:52:22.822Z,6.90
2022-10-21T14:54:53.929Z,6.97
2022-10-21T14:57:32.812Z,4.93
2022-10-21T15:00:00.693Z,6.10
2022-10-21T15:02:30.219Z,5.97
2022-10-21T15:04:59.074Z,7.47
2022-10-21T15:07:30.060Z,8.68
2022-10-21T15:10:18.758Z,5.88
2022-10-21T15:12:47.099Z,7.13
2022-10-21T15:15:56.669Z,6.15
2022-10-21T15:18:25.713Z,5.40
2022-10-21T15:20:55.191Z,5.82
2022-10-21T15:23:26.758Z,7.65
2022-10-21T15:25:55.915Z,7.47
2022-10-21T15:28:26.056Z,5.60
2022-10-21T15:30:53.982Z,6.93
2022-10-21T15:33:22.576Z,6.63
2022-10-21T15:36:01.138Z,6.57
2022-10-21T15:38:30.482Z,6.50
2022-10-21T15:40:58.496Z,6.18
2022-10-21T15:43:26.502Z,5.88
2022-10-21T15:45:54.481Z,6.03
2022-10-21T15:48:23.209Z,6.75
2022-10-21T15:50:51.214Z,5.47
2022-10-21T15:53:19.189Z,6.18
2022-10-21T15:55:48.578Z,4.75
2022-10-21T15:58:16.607Z,5.90
2022-10-21T16:00:44.691Z,5.70
2022-10-21T16:03:12.719Z,5.05
2022-10-21T16:05:40.734Z,5.97
2022-10-21T16:08:10.483Z,6.93
2022-10-21T16:10:41.562Z,6.32
2022-10-21T16:13:10.890Z,6.45
2022-10-21T16:15:38.842Z,6.32
2022-10-21T16:18:10.848Z,6.18
2022-10-21T16:20:38.814Z,5.68
2022-10-21T16:23:06.864Z,5.75
2022-10-21T16:25:34.927Z,6.38
2022-10-21T16:28:02.942Z,5.70
2022-10-21T16:30:34.521Z,6.47
2022-10-21T16:33:02.622Z,5.28
2022-10-21T16:35:31.042Z,5.15
2022-10-21T16:37:59.009Z,5.55
2022-10-21T16:40:27.822Z,5.13
2022-10-21T16:42:55.952Z,6.28
2022-10-21T16:45:24.545Z,6.07
2022-10-21T16:47:56.709Z,5.35
2022-10-21T16:50:25.952Z,5.22
2022-10-21T16:52:53.996Z,4.95
2022-10-21T16:55:22.237Z,5.85
2022-10-21T16:57:50.206Z,7.45
2022-10-21T17:00:19.183Z,5.10
2022-10-21T17:02:47.503Z,10.65
2022-10-21T17:05:16.860Z,5.85
2022-10-21T17:07:44.826Z,8.45
2022-10-21T17:10:13.163Z,5.80
2022-10-21T17:12:41.212Z,5.60
2022-10-21T17:15:10.206Z,5.32
2022-10-21T17:17:38.479Z,7.30
2022-10-21T17:20:08.063Z,5.85
2022-10-21T17:22:37.368Z,6.05
2022-10-21T17:25:06.044Z,9.77
2022-10-21T17:27:34.069Z,5.00
2022-10-21T17:30:02.072Z,7.82
2022-10-21T17:32:30.127Z,6.68
2022-10-21T17:34:58.625Z,7.20
2022-10-21T17:37:26.607Z,6.05
2022-10-21T17:39:56.003Z,5.50
2022-10-21T17:42:23.972Z,6.93
2022-10-21T17:44:52.771Z,6.60
2022-10-21T17:47:20.813Z,7.43
2022-10-21T17:49:48.713Z,6.28
2022-10-21T17:52:16.730Z,4.72
2022-10-21T17:54:44.789Z,5.22
2022-10-21T17:57:14.170Z,5.43
2022-10-21T17:59:42.222Z,6.47
2022-10-21T18:02:11.012Z,6.90
2022-10-21T18:04:39.067Z,5.93
2022-10-21T18:07:09.413Z,6.10
2022-10-21T18:09:38.530Z,7.25
2022-10-21T18:12:09.499Z,4.90
2022-10-21T18:14:39.252Z,6.53
2022-10-21T18:17:08.597Z,5.45
2022-10-21T18:19:36.722Z,4.95
2022-10-21T18:22:04.944Z,8.65
2022-10-21T18:24:35.251Z,5.70
2022-10-21T18:27:03.477Z,5.20
2022-10-21T18:29:31.625Z,5.75
2022-10-21T18:32:00.962Z,7.65
2022-10-21T18:34:28.991Z,7.85
2022-10-21T18:36:59.588Z,5.07
2022-10-21T18:39:27.732Z,6.25
2022-10-21T18:41:55.658Z,5.60
2022-10-21T18:44:24.051Z,4.63
2022-10-21T18:46:55.189Z,5.50
2022-10-21T18:49:25.437Z,4.40
2022-10-21T18:51:53.620Z,5.18
2022-10-21T18:54:21.634Z,6.00
2022-10-21T18:56:49.841Z,4.95
2022-10-21T18:59:18.077Z,5.22
2022-10-21T19:01:46.144Z,5.30
2022-10-21T19:04:14.831Z,6.00
2022-10-21T19:06:45.416Z,4.93
2022-10-21T19:09:14.818Z,5.70
2022-10-21T19:11:43.830Z,4.45
2022-10-21T19:14:14.113Z,4.45
2022-10-21T19:16:42.794Z,6.25
2022-10-21T19:19:10.819Z,5.20
2022-10-21T19:21:38.892Z,5.15
2022-10-21T19:24:08.621Z,6.97
2022-10-21T19:26:37.393Z,6.10
2022-10-21T19:29:07.339Z,5.20
2022-10-21T19:31:38.535Z,5.28
2022-10-21T19:34:07.376Z,6.85
2022-10-21T19:36:37.883Z,7.00
2022-10-21T19:39:06.005Z,5.43
2022-10-21T19:41:35.404Z,7.63
2022-10-21T19:44:03.494Z,5.65
2022-10-21T19:46:32.732Z,6.20
2022-10-21T19:49:01.805Z,4.90
2022-10-21T19:51:29.840Z,7.35
2022-10-21T19:53:58.047Z,8.48
2022-10-21T19:56:28.704Z,4.97
2022-10-21T19:59:02.627Z,7.30
2022-10-21T20:01:31.326Z,6.55
2022-10-21T20:04:01.062Z,5.80
2022-10-21T20:06:29.807Z,6.22
2022-10-21T20:08:58.399Z,6.97
2022-10-21T20:11:27.041Z,7.20
2022-10-21T20:13:55.422Z,9.35
2022-10-21T20:16:26.634Z,6.60
2022-10-21T20:18:54.874Z,5.25
2022-10-21T20:21:26.447Z,9.55
2022-10-21T20:23:56.104Z,4.75
2022-10-21T20:26:29.039Z,7.78
2022-10-21T20:28:57.207Z,10.63
2022-10-21T20:31:26.731Z,6.43
2022-10-21T20:33:54.893Z,5.43
2022-10-21T20:36:24.246Z,9.68
2022-10-21T20:38:53.121Z,8.43
2022-10-21T20:41:22.612Z,7.53
2022-10-21T20:43:51.004Z,9.23
2022-10-21T20:46:19.409Z,8.80
2022-10-21T20:48:49.886Z,5.95
2022-10-21T20:51:19.510Z,7.60
2022-10-21T20:56:20.842Z,11.02
2022-10-21T20:58:48.971Z,4.82
2022-10-21T21:01:18.255Z,6.80
2022-10-21T21:03:46.464Z,7.90
2022-10-21T21:06:15.668Z,10.45
2022-10-21T21:08:48.821Z,6.03
2022-10-21T21:11:17.089Z,6.30
2022-10-21T21:13:45.486Z,10.60
2022-10-21T21:16:14.357Z,7.20
2022-10-21T21:18:43.631Z,11.65
2022-10-21T21:21:12.311Z,10.90
2022-10-21T21:23:42.010Z,7.43
2022-10-21T21:26:11.013Z,6.40
2022-10-21T21:28:38.946Z,9.48
2022-10-21T21:31:07.354Z,8.48
2022-10-21T21:33:35.288Z,14.25
2022-10-21T21:36:04.693Z,9.60
2022-10-21T21:38:33.279Z,8.05
2022-10-21T21:41:04.543Z,8.00
2022-10-21T21:43:34.983Z,8.13
2022-10-21T21:46:02.907Z,5.22
2022-10-21T21:48:32.055Z,6.32
2022-10-21T21:51:02.887Z,6.00
2022-10-21T21:53:30.777Z,6.85
2022-10-21T21:56:03.465Z,6.68
2022-10-21T21:58:31.475Z,9.38
2022-10-21T22:00:59.386Z,9.13
2022-10-21T22:03:27.414Z,9.00
2022-10-21T22:05:55.330Z,7.30
2022-10-21T22:08:23.195Z,7.90
2022-10-21T22:10:51.065Z,7.45
2022-10-21T22:13:20.360Z,8.77
2022-10-21T22:15:48.732Z,9.68
2022-10-21T22:18:16.726Z,7.10
2022-10-21T22:20:44.615Z,8.55
2022-10-21T22:23:12.470Z,7.05
2022-10-21T22:25:40.461Z,8.52
2022-10-21T22:28:08.379Z,6.85
2022-10-21T22:30:37.613Z,7.65
2022-10-21T22:33:05.523Z,8.02
2022-10-21T22:35:33.407Z,8.93
2022-10-21T22:38:01.274Z,8.13
2022-10-21T22:40:29.124Z,8.50
2022-10-21T22:42:57.068Z,6.88
2022-10-21T22:45:25.151Z,7.15
2022-10-21T22:47:54.376Z,6.95
2022-10-21T22:50:22.590Z,8.38
2022-10-21T22:52:50.528Z,6.43
2022-10-21T22:55:18.396Z,8.27
2022-10-21T22:57:46.261Z,9.60
2022-10-21T23:00:14.801Z,8.32
2022-10-21T23:02:42.960Z,7.88
2022-10-21T23:05:12.441Z,10.02
2022-10-21T23:07:40.341Z,8.43
2022-10-21T23:10:09.280Z,9.75
2022-10-21T23:12:37.328Z,9.00
2022-10-21T23:15:06.007Z,7.63
2022-10-21T23:17:33.910Z,8.30
2022-10-21T23:20:01.810Z,7.32
2022-10-21T23:22:31.016Z,8.73
2022-10-21T23:24:58.902Z,8.07
2022-10-21T23:27:27.996Z,8.60
2022-10-21T23:29:55.974Z,9.60
2022-10-21T23:32:23.859Z,9.45
2022-10-21T23:34:51.763Z,7.30
2022-10-21T23:39:49.771Z,11.07
2022-10-21T23:42:17.671Z,8.70
2022-10-21T23:44:45.562Z,7.78
2022-10-21T23:47:13.442Z,7.93
2022-10-21T23:49:41.333Z,7.35
2022-10-21T23:52:09.208Z,9.10
2022-10-21T23:54:37.349Z,7.55
2022-10-21T23:57:06.612Z,7.05
2022-10-21T23:59:35.213Z,8.32
